Time;durP1;ratioP1;P1;durP2;ratioP2;P2;SDS_P1;SDS_P2;PMS_P1;PMS_P2;Temp;Humidity;BMP_temperature;BMP_pressure;BME280_temperature;BME280_humidity;BME280_pressure;Samples;Min_cycle;Max_cycle;Signal;HPM_P1;HPM_P2
2022/03/21 00:02:10;;;;;;;55.20;34.00;;;;;;;;;;5026032;28;20049;-68
2022/03/21 00:04:36;;;;;;;53.90;32.60;;;;;;;;;;5020218;28;20048;-69
2022/03/21 00:07:03;;;;;;;56.85;34.03;;;;;;;;;;5039274;28;20051;-69
2022/03/21 00:09:29;;;;;;;52.78;32.50;;;;;;;;;;5034069;28;20049;-69
2022/03/21 00:11:55;;;;;;;55.97;33.60;;;;;;;;;;5044624;28;20068;-69
2022/03/21 00:14:22;;;;;;;57.72;33.60;;;;;;;;;;5034257;28;20054;-69
2022/03/21 00:16:48;;;;;;;58.17;34.47;;;;;;;;;;5014311;28;20049;-69
2022/03/21 00:19:15;;;;;;;56.47;33.08;;;;;;;;;;5027347;28;20041;-69
2022/03/21 00:21:41;;;;;;;54.17;31.83;;;;;;;;;;5020604;28;20045;-69
2022/03/21 00:24:07;;;;;;;53.47;32.75;;;;;;;;;;5028673;28;20037;-69
2022/03/21 00:26:34;;;;;;;51.40;31.40;;;;;;;;;;5050810;28;20053;-69
2022/03/21 00:29:00;;;;;;;58.90;33.50;;;;;;;;;;5015054;28;20426;-69
2022/03/21 00:31:27;;;;;;;55.53;33.63;;;;;;;;;;5035830;28;20073;-69
2022/03/21 00:33:53;;;;;;;59.00;33.70;;;;;;;;;;5037355;28;20049;-69
2022/03/21 00:36:19;;;;;;;55.67;33.35;;;;;;;;;;5046176;28;20471;-69
2022/03/21 00:39:06;;;;;;;60.83;32.92;;;;;;;;;;5038296;28;20861;-69
2022/03/21 00:41:34;;;;;;;51.20;31.60;;;;;;;;;;5038743;28;20410;-69
2022/03/21 00:44:01;;;;;;;54.70;31.83;;;;;;;;;;5031010;28;20042;-69
2022/03/21 00:46:27;;;;;;;50.75;31.85;;;;;;;;;;5020033;28;20391;-69
2022/03/21 00:48:54;;;;;;;52.15;31.45;;;;;;;;;;5031583;28;20060;-69
2022/03/21 00:51:20;;;;;;;51.22;31.92;;;;;;;;;;5030048;28;20068;-69
2022/03/21 00:53:47;;;;;;;52.40;31.58;;;;;;;;;;5067314;28;20068;-69
2022/03/21 00:56:13;;;;;;;54.40;33.00;;;;;;;;;;5023648;28;20491;-69
2022/03/21 00:58:39;;;;;;;52.88;33.63;;;;;;;;;;5023171;28;20047;-71
2022/03/21 01:01:06;;;;;;;54.88;32.80;;;;;;;;;;5032923;28;20055;-69
2022/03/21 01:03:33;;;;;;;54.33;29.92;;;;;;;;;;5024339;28;20052;-69
2022/03/21 01:05:59;;;;;;;52.72;31.27;;;;;;;;;;5030671;28;20140;-69
2022/03/21 01:08:26;;;;;;;50.75;30.92;;;;;;;;;;5046364;28;20060;-69
2022/03/21 01:10:52;;;;;;;49.83;31.58;;;;;;;;;;5046250;28;20045;-69
2022/03/21 01:13:21;;;;;;;50.08;30.00;;;;;;;;;;5037529;28;20053;-70
2022/03/21 01:15:47;;;;;;;52.72;31.00;;;;;;;;;;5041776;28;20568;-70
2022/03/21 01:18:13;;;;;;;47.70;29.65;;;;;;;;;;5039327;28;20085;-69
2022/03/21 01:20:40;;;;;;;56.22;31.42;;;;;;;;;;5035467;28;20068;-69
2022/03/21 01:23:06;;;;;;;47.95;29.77;;;;;;;;;;5039259;28;20052;-69
2022/03/21 01:25:32;;;;;;;50.08;30.35;;;;;;;;;;5033137;28;20053;-69
2022/03/21 01:27:59;;;;;;;48.42;30.65;;;;;;;;;;5033426;28;20745;-69
2022/03/21 01:30:25;;;;;;;52.33;31.40;;;;;;;;;;5039776;28;20064;-69
2022/03/21 01:32:51;;;;;;;44.22;30.33;;;;;;;;;;5051828;28;20219;-69
2022/03/21 01:35:18;;;;;;;49.55;31.25;;;;;;;;;;5047289;28;20053;-69
2022/03/21 01:37:45;;;;;;;46.60;29.73;;;;;;;;;;5030709;28;20053;-69
2022/03/21 01:40:11;;;;;;;49.47;30.33;;;;;;;;;;5032333;28;20045;-69
2022/03/21 01:42:39;;;;;;;51.38;30.40;;;;;;;;;;5045354;28;20062;-69
2022/03/21 01:45:05;;;;;;;49.60;30.90;;;;;;;;;;5044338;28;20407;-69
2022/03/21 01:47:33;;;;;;;49.60;29.40;;;;;;;;;;5041567;28;20037;-70
2022/03/21 01:50:00;;;;;;;50.25;30.27;;;;;;;;;;5042675;28;20053;-69
2022/03/21 01:52:26;;;;;;;50.65;31.10;;;;;;;;;;5049224;28;20049;-69
2022/03/21 01:57:38;;;;;;;47.90;29.63;;;;;;;;;;5041985;28;20581;-69
2022/03/21 02:00:05;;;;;;;50.08;30.88;;;;;;;;;;5006052;28;20068;-69
2022/03/21 02:02:33;;;;;;;49.10;29.50;;;;;;;;;;5038049;28;20072;-69
2022/03/21 02:05:00;;;;;;;48.38;29.88;;;;;;;;;;5030491;28;20045;-69
2022/03/21 02:07:27;;;;;;;42.67;28.88;;;;;;;;;;5034642;28;20056;-68
2022/03/21 02:09:53;;;;;;;49.58;29.40;;;;;;;;;;5029333;28;20056;-69
2022/03/21 02:12:20;;;;;;;47.35;29.90;;;;;;;;;;5031603;28;20049;-69
2022/03/21 02:14:46;;;;;;;45.15;28.92;;;;;;;;;;5045379;28;20053;-69
2022/03/21 02:17:16;;;;;;;46.65;28.45;;;;;;;;;;5031833;28;20133;-69
2022/03/21 02:19:43;;;;;;;45.72;29.13;;;;;;;;;;5031477;28;20050;-69
2022/03/21 02:22:25;;;;;;;56.28;31.25;;;;;;;;;;5039129;28;20474;-69
2022/03/21 02:25:02;;;;;;;50.63;30.23;;;;;;;;;;5032943;28;20045;-70
2022/03/21 02:27:30;;;;;;;47.58;28.50;;;;;;;;;;5033089;28;20487;-69
2022/03/21 02:29:57;;;;;;;46.20;27.55;;;;;;;;;;5024883;28;20486;-70
2022/03/21 02:32:24;;;;;;;51.30;29.17;;;;;;;;;;5045180;28;20059;-69
2022/03/21 02:34:51;;;;;;;45.58;28.33;;;;;;;;;;5029233;28;20445;-69
2022/03/21 02:37:18;;;;;;;49.63;29.77;;;;;;;;;;5046825;28;20721;-69
2022/03/21 02:39:45;;;;;;;49.15;28.60;;;;;;;;;;5039145;28;20049;-69
2022/03/21 02:42:12;;;;;;;49.17;28.10;;;;;;;;;;5041769;28;20083;-69
2022/03/21 02:44:43;;;;;;;47.40;30.00;;;;;;;;;;5051970;28;20049;-69
2022/03/21 02:47:10;;;;;;;47.03;29.38;;;;;;;;;;5044602;28;20052;-69
2022/03/21 02:49:37;;;;;;;47.17;29.50;;;;;;;;;;5045198;28;20049;-69
2022/03/21 02:52:04;;;;;;;47.22;26.90;;;;;;;;;;5035640;28;20037;-68
2022/03/21 02:54:31;;;;;;;47.47;28.55;;;;;;;;;;5050146;28;20073;-69
2022/03/21 02:56:57;;;;;;;46.72;29.02;;;;;;;;;;5035673;28;20060;-69
2022/03/21 02:59:24;;;;;;;49.03;28.90;;;;;;;;;;5041307;28;20052;-69
2022/03/21 03:01:54;;;;;;;47.33;26.98;;;;;;;;;;5042861;28;20068;-69
2022/03/21 03:04:21;;;;;;;50.45;28.00;;;;;;;;;;5039665;28;20743;-69
2022/03/21 03:06:47;;;;;;;41.55;26.00;;;;;;;;;;5044861;28;20052;-69
2022/03/21 03:09:14;;;;;;;46.17;27.42;;;;;;;;;;5033120;28;20051;-69
2022/03/21 03:11:40;;;;;;;44.92;26.58;;;;;;;;;;5045449;28;20544;-69
2022/03/21 03:14:07;;;;;;;41.67;25.27;;;;;;;;;;5026956;28;20045;-69
2022/03/21 03:16:34;;;;;;;40.38;25.42;;;;;;;;;;5037985;28;20048;-68
2022/03/21 03:19:01;;;;;;;49.63;28.58;;;;;;;;;;5039848;28;20514;-68
2022/03/21 03:21:30;;;;;;;43.22;26.55;;;;;;;;;;5043281;28;20032;-68
2022/03/21 03:23:56;;;;;;;42.95;26.65;;;;;;;;;;5040599;28;20046;-68
2022/03/21 03:26:23;;;;;;;44.85;26.90;;;;;;;;;;5024381;28;20045;-69
2022/03/21 03:28:49;;;;;;;42.75;26.15;;;;;;;;;;5044856;28;20044;-69
2022/03/21 03:31:17;;;;;;;38.90;25.52;;;;;;;;;;5036310;28;20053;-69
2022/03/21 03:33:45;;;;;;;41.22;25.55;;;;;;;;;;5040219;28;20041;-69
2022/03/21 03:36:12;;;;;;;44.97;28.05;;;;;;;;;;5051629;28;20110;-69
2022/03/21 03:38:39;;;;;;;46.90;26.83;;;;;;;;;;5040570;28;20058;-69
2022/03/21 03:41:05;;;;;;;43.28;26.45;;;;;;;;;;5041380;28;20418;-69
2022/03/21 03:43:31;;;;;;;43.97;26.33;;;;;;;;;;5022898;28;20104;-69
2022/03/21 03:45:58;;;;;;;44.83;25.35;;;;;;;;;;5044402;28;20040;-69
2022/03/21 03:48:25;;;;;;;44.40;25.88;;;;;;;;;;5041252;28;20163;-69
2022/03/21 03:50:51;;;;;;;42.65;26.23;;;;;;;;;;5043717;28;20052;-69
2022/03/21 03:53:18;;;;;;;46.55;26.10;;;;;;;;;;5058319;28;20052;-68
2022/03/21 03:55:44;;;;;;;44.13;25.77;;;;;;;;;;5043932;28;20056;-68
2022/03/21 03:58:10;;;;;;;42.80;26.20;;;;;;;;;;5042108;28;20048;-69
2022/03/21 04:00:37;;;;;;;42.40;26.85;;;;;;;;;;5033780;28;20055;-69
2022/03/21 04:05:49;;;;;;;38.47;24.17;;;;;;;;;;5038169;28;20045;-69
2022/03/21 04:08:15;;;;;;;40.63;24.08;;;;;;;;;;5041760;28;20484;-68
2022/03/21 04:10:42;;;;;;;38.47;22.52;;;;;;;;;;5032939;28;20259;-69
2022/03/21 04:13:08;;;;;;;37.25;23.08;;;;;;;;;;5038366;28;20041;-69
2022/03/21 04:15:34;;;;;;;40.72;25.00;;;;;;;;;;5045055;28;20417;-69
2022/03/21 04:18:01;;;;;;;35.78;23.25;;;;;;;;;;5038191;28;20063;-68
2022/03/21 04:20:31;;;;;;;40.47;23.33;;;;;;;;;;5038181;28;20049;-69
2022/03/21 04:23:00;;;;;;;35.85;22.45;;;;;;;;;;5036141;28;20049;-68
2022/03/21 04:25:27;;;;;;;37.88;22.50;;;;;;;;;;5045845;28;20062;-68
2022/03/21 04:27:53;;;;;;;38.42;23.08;;;;;;;;;;5045453;28;20418;-71
2022/03/21 04:30:20;;;;;;;37.47;23.30;;;;;;;;;;5037693;28;20067;-70
2022/03/21 04:32:46;;;;;;;40.40;24.08;;;;;;;;;;5019217;28;20056;-71
2022/03/21 04:35:13;;;;;;;36.58;24.23;;;;;;;;;;5036471;28;20048;-69
2022/03/21 04:37:40;;;;;;;39.97;25.25;;;;;;;;;;5042070;28;20045;-69
2022/03/21 04:40:07;;;;;;;38.25;24.75;;;;;;;;;;5039233;28;20053;-69
2022/03/21 04:42:34;;;;;;;34.10;20.73;;;;;;;;;;5044765;28;20053;-69
2022/03/21 04:45:00;;;;;;;41.97;25.83;;;;;;;;;;5040519;28;20059;-69
2022/03/21 04:47:26;;;;;;;39.03;22.42;;;;;;;;;;5040800;28;20064;-69
2022/03/21 04:49:53;;;;;;;38.45;23.30;;;;;;;;;;5042651;28;20059;-69
2022/03/21 04:52:19;;;;;;;38.70;23.15;;;;;;;;;;5027595;28;20056;-70
2022/03/21 04:54:45;;;;;;;38.08;24.02;;;;;;;;;;5050850;28;20052;-69
2022/03/21 04:57:12;;;;;;;35.50;22.45;;;;;;;;;;5031698;28;20049;-69
2022/03/21 04:59:38;;;;;;;37.90;22.40;;;;;;;;;;5059595;28;20049;-69
2022/03/21 05:02:04;;;;;;;34.08;20.90;;;;;;;;;;5037842;28;20049;-69
2022/03/21 05:04:31;;;;;;;37.95;23.45;;;;;;;;;;5025182;28;20053;-70
2022/03/21 05:06:57;;;;;;;36.90;24.10;;;;;;;;;;5042635;28;20037;-70
2022/03/21 05:09:24;;;;;;;35.88;21.13;;;;;;;;;;5040067;28;20049;-70
2022/03/21 05:11:50;;;;;;;34.47;22.15;;;;;;;;;;5040040;28;20037;-69
2022/03/21 05:14:18;;;;;;;36.13;22.95;;;;;;;;;;5031239;28;20067;-69
2022/03/21 05:16:48;;;;;;;35.47;22.10;;;;;;;;;;5027264;28;20248;-69
2022/03/21 05:19:15;;;;;;;34.22;21.83;;;;;;;;;;5053740;28;20057;-69
2022/03/21 05:21:42;;;;;;;34.38;20.75;;;;;;;;;;5040427;28;20045;-70
2022/03/21 05:32:24;;;;;;;31.83;20.67;;;;;;;;;;5034163;28;20373;-70
2022/03/21 05:37:36;;;;;;;34.30;19.58;;;;;;;;;;5024246;28;20053;-70
2022/03/21 05:42:47;;;;;;;31.58;18.58;;;;;;;;;;5030592;28;20144;-70
2022/03/21 05:45:19;;;;;;;34.45;19.60;;;;;;;;;;5029950;28;20045;-70
2022/03/21 05:50:33;;;;;;;31.55;20.15;;;;;;;;;;5033773;28;20641;-70
2022/03/21 05:52:59;;;;;;;32.70;19.77;;;;;;;;;;5040920;28;20489;-69
2022/03/21 05:55:25;;;;;;;33.63;19.45;;;;;;;;;;5040066;28;20524;-69
2022/03/21 05:57:52;;;;;;;30.58;19.50;;;;;;;;;;5038011;28;20057;-69
2022/03/21 06:00:21;;;;;;;29.65;19.02;;;;;;;;;;5030366;28;20058;-69
2022/03/21 06:02:51;;;;;;;33.35;19.33;;;;;;;;;;5035475;28;20049;-69
2022/03/21 06:05:18;;;;;;;29.20;18.83;;;;;;;;;;5031995;28;20045;-69
2022/03/21 06:07:45;;;;;;;31.38;19.23;;;;;;;;;;5027810;28;20418;-68
2022/03/21 06:10:12;;;;;;;33.58;19.05;;;;;;;;;;5031180;28;20050;-69
2022/03/21 06:12:39;;;;;;;29.73;18.40;;;;;;;;;;5018244;28;20060;-69
2022/03/21 06:15:06;;;;;;;34.22;20.15;;;;;;;;;;5037903;28;20044;-68
2022/03/21 06:17:38;;;;;;;34.90;20.50;;;;;;;;;;5041069;28;20049;-69
2022/03/21 06:20:08;;;;;;;34.90;21.10;;;;;;;;;;5050745;28;20130;-68
2022/03/21 06:22:34;;;;;;;36.40;19.13;;;;;;;;;;5038101;28;20382;-69
2022/03/21 06:25:00;;;;;;;35.10;19.45;;;;;;;;;;5027487;28;20037;-69
2022/03/21 06:27:27;;;;;;;32.92;18.58;;;;;;;;;;5026321;28;20053;-69
2022/03/21 06:29:53;;;;;;;33.50;19.63;;;;;;;;;;5031814;28;20358;-68
2022/03/21 06:32:20;;;;;;;35.58;19.70;;;;;;;;;;5040635;28;20052;-69
2022/03/21 06:34:47;;;;;;;29.35;18.95;;;;;;;;;;5028175;28;20083;-68
2022/03/21 06:37:13;;;;;;;35.25;19.73;;;;;;;;;;5030399;28;20065;-69
2022/03/21 06:39:39;;;;;;;33.55;20.58;;;;;;;;;;5030271;28;20041;-69
2022/03/21 06:42:06;;;;;;;31.45;19.30;;;;;;;;;;5033447;28;20695;-68
2022/03/21 06:44:32;;;;;;;34.47;18.67;;;;;;;;;;5056082;28;20128;-69
2022/03/21 06:46:59;;;;;;;31.17;19.30;;;;;;;;;;5051795;28;20049;-68
2022/03/21 06:49:29;;;;;;;34.85;20.17;;;;;;;;;;5050523;28;20063;-68
2022/03/21 06:51:56;;;;;;;45.75;22.52;;;;;;;;;;5042178;28;20401;-69
2022/03/21 06:54:23;;;;;;;34.47;20.75;;;;;;;;;;5040250;28;20053;-69
2022/03/21 06:56:49;;;;;;;33.05;19.60;;;;;;;;;;5043709;28;20055;-69
2022/03/21 06:59:16;;;;;;;39.95;23.73;;;;;;;;;;5043552;28;20045;-69
2022/03/21 07:01:42;;;;;;;33.22;20.30;;;;;;;;;;5037658;28;20045;-69
2022/03/21 07:04:08;;;;;;;39.65;21.42;;;;;;;;;;5032437;28;20135;-69
2022/03/21 07:06:35;;;;;;;36.28;21.35;;;;;;;;;;5028109;28;20465;-69
2022/03/21 07:09:01;;;;;;;34.30;19.30;;;;;;;;;;5030209;28;20048;-69
2022/03/21 07:11:29;;;;;;;37.45;21.42;;;;;;;;;;5024866;28;20053;-69
2022/03/21 07:13:55;;;;;;;37.23;21.30;;;;;;;;;;5032859;28;20045;-69
2022/03/21 07:16:21;;;;;;;37.35;21.42;;;;;;;;;;5026381;28;20056;-69
2022/03/21 07:18:49;;;;;;;34.33;19.92;;;;;;;;;;5043200;28;20045;-69
2022/03/21 07:21:16;;;;;;;32.05;19.40;;;;;;;;;;5031888;28;20052;-70
2022/03/21 07:23:43;;;;;;;35.55;20.80;;;;;;;;;;5049420;28;20053;-70
2022/03/21 07:26:11;;;;;;;38.25;20.33;;;;;;;;;;5048828;28;20045;-70
2022/03/21 07:28:38;;;;;;;38.50;21.10;;;;;;;;;;5036116;28;20099;-71
2022/03/21 07:31:24;;;;;;;42.60;21.20;;;;;;;;;;5049536;28;20060;-69
2022/03/21 07:33:51;;;;;;;36.33;20.30;;;;;;;;;;5034765;28;20075;-69
2022/03/21 07:36:17;;;;;;;41.30;21.42;;;;;;;;;;5042951;28;20045;-69
2022/03/21 07:38:43;;;;;;;36.85;20.25;;;;;;;;;;5044369;28;20037;-70
2022/03/21 07:41:10;;;;;;;43.17;22.25;;;;;;;;;;5053590;28;20509;-70
2022/03/21 07:43:37;;;;;;;43.67;20.77;;;;;;;;;;5038781;28;20045;-69
2022/03/21 07:48:50;;;;;;;44.20;21.80;;;;;;;;;;5033862;28;20049;-69
2022/03/21 07:51:16;;;;;;;39.60;22.75;;;;;;;;;;5037339;28;20053;-70
2022/03/21 07:53:43;;;;;;;38.30;20.95;;;;;;;;;;5039074;28;20028;-69
2022/03/21 07:56:09;;;;;;;33.15;18.42;;;;;;;;;;5018018;28;20045;-69
2022/03/21 07:58:35;;;;;;;33.90;20.58;;;;;;;;;;5046428;28;20051;-69
2022/03/21 08:01:03;;;;;;;41.30;21.73;;;;;;;;;;5032115;28;20547;-69
2022/03/21 08:03:29;;;;;;;41.25;22.63;;;;;;;;;;5032288;28;20075;-69
2022/03/21 08:05:59;;;;;;;35.78;21.30;;;;;;;;;;5045177;28;20056;-69
2022/03/21 08:08:26;;;;;;;38.90;21.08;;;;;;;;;;5036351;28;20063;-69
2022/03/21 08:10:53;;;;;;;39.17;22.38;;;;;;;;;;5041478;28;20056;-69
2022/03/21 08:13:20;;;;;;;40.10;21.02;;;;;;;;;;5033992;28;20053;-69
2022/03/21 08:15:46;;;;;;;36.75;21.45;;;;;;;;;;5042051;28;20052;-69
2022/03/21 08:18:13;;;;;;;45.63;22.70;;;;;;;;;;5040437;28;20045;-69
2022/03/21 08:20:43;;;;;;;36.22;21.23;;;;;;;;;;5044615;28;20126;-70
2022/03/21 08:23:11;;;;;;;39.22;22.88;;;;;;;;;;5037574;28;21463;-70
2022/03/21 08:25:39;;;;;;;45.30;23.48;;;;;;;;;;5014065;28;20528;-69
2022/03/21 08:28:06;;;;;;;36.63;20.45;;;;;;;;;;5032953;28;20096;-70
2022/03/21 08:30:34;;;;;;;39.97;23.33;;;;;;;;;;5028103;28;20037;-69
2022/03/21 08:33:02;;;;;;;40.97;23.85;;;;;;;;;;5044331;28;20092;-69
2022/03/21 08:35:30;;;;;;;31.93;18.50;;;;;;;;;;5028590;28;20513;-69
2022/03/21 08:37:56;;;;;;;41.45;23.70;;;;;;;;;;5050010;28;20048;-70
2022/03/21 08:40:23;;;;;;;39.80;23.52;;;;;;;;;;5036417;28;20049;-69
2022/03/21 08:42:49;;;;;;;41.20;23.65;;;;;;;;;;5022155;28;20049;-69
2022/03/21 08:45:15;;;;;;;42.05;23.48;;;;;;;;;;5034868;28;20051;-69
2022/03/21 08:47:42;;;;;;;42.53;23.23;;;;;;;;;;5035391;28;20060;-69
2022/03/21 08:50:09;;;;;;;36.72;22.60;;;;;;;;;;5046741;28;20052;-69
2022/03/21 08:52:36;;;;;;;44.08;22.30;;;;;;;;;;5029967;28;20055;-69
2022/03/21 08:55:04;;;;;;;42.72;24.75;;;;;;;;;;5043202;28;20490;-69
2022/03/21 08:57:31;;;;;;;39.20;22.02;;;;;;;;;;5043922;28;20128;-69
2022/03/21 08:59:57;;;;;;;33.67;20.58;;;;;;;;;;5029973;28;20053;-69
2022/03/21 09:02:24;;;;;;;42.55;22.15;;;;;;;;;;5046411;28;20049;-70
2022/03/21 09:04:50;;;;;;;42.80;21.85;;;;;;;;;;5044558;28;20040;-69
2022/03/21 09:07:18;;;;;;;36.60;21.02;;;;;;;;;;5043932;28;20045;-70
2022/03/21 09:09:44;;;;;;;36.33;20.90;;;;;;;;;;5035123;28;20045;-69
2022/03/21 09:12:11;;;;;;;34.45;20.52;;;;;;;;;;5043034;28;20545;-69
2022/03/21 09:14:37;;;;;;;33.38;19.38;;;;;;;;;;5047221;28;20395;-69
2022/03/21 09:17:04;;;;;;;37.80;19.45;;;;;;;;;;5039652;28;20044;-70
2022/03/21 09:19:30;;;;;;;33.78;18.63;;;;;;;;;;5030883;28;20494;-69
2022/03/21 09:21:57;;;;;;;35.13;19.30;;;;;;;;;;5053149;28;20071;-69
2022/03/21 09:24:24;;;;;;;33.95;19.17;;;;;;;;;;5054051;28;20052;-70
2022/03/21 09:26:50;;;;;;;32.28;17.75;;;;;;;;;;5034560;28;20128;-69
2022/03/21 09:29:17;;;;;;;31.55;16.40;;;;;;;;;;5049257;28;20047;-69
2022/03/21 09:31:44;;;;;;;36.55;19.60;;;;;;;;;;5053015;28;20433;-69
2022/03/21 09:34:11;;;;;;;37.10;19.45;;;;;;;;;;5045457;28;20047;-69
2022/03/21 09:36:38;;;;;;;35.75;18.10;;;;;;;;;;5044240;28;20049;-70
2022/03/21 09:39:05;;;;;;;29.00;15.48;;;;;;;;;;5030814;28;20494;-69
2022/03/21 09:41:32;;;;;;;29.83;16.23;;;;;;;;;;5042919;28;20050;-70
2022/03/21 09:44:00;;;;;;;34.03;16.77;;;;;;;;;;5044947;28;20271;-71
2022/03/21 09:46:26;;;;;;;31.93;16.80;;;;;;;;;;5042254;28;20483;-71
2022/03/21 09:48:54;;;;;;;27.15;16.30;;;;;;;;;;5045382;28;20493;-70
2022/03/21 09:51:22;;;;;;;30.20;16.75;;;;;;;;;;5019562;28;20224;-68
2022/03/21 09:53:52;;;;;;;36.80;17.30;;;;;;;;;;5041500;28;20049;-69
2022/03/21 09:56:19;;;;;;;29.23;17.70;;;;;;;;;;5033510;28;20160;-69
2022/03/21 09:58:45;;;;;;;36.13;18.05;;;;;;;;;;5045166;28;20067;-69
2022/03/21 10:01:12;;;;;;;32.08;17.35;;;;;;;;;;5036427;28;20095;-69
2022/03/21 10:03:39;;;;;;;25.67;16.55;;;;;;;;;;5039152;28;20053;-69
2022/03/21 10:06:25;;;;;;;29.17;17.95;;;;;;;;;;5047455;28;20036;-70
2022/03/21 10:09:02;;;;;;;28.05;17.92;;;;;;;;;;5031094;28;20055;-71
2022/03/21 10:11:29;;;;;;;36.90;18.23;;;;;;;;;;5029017;28;20051;-70
2022/03/21 10:13:55;;;;;;;33.25;18.85;;;;;;;;;;5038252;28;20075;-70
2022/03/21 10:16:21;;;;;;;28.33;17.20;;;;;;;;;;5042449;28;20052;-70
2022/03/21 10:18:53;;;;;;;32.35;19.75;;;;;;;;;;5025936;28;20050;-71
2022/03/21 10:21:21;;;;;;;29.80;17.58;;;;;;;;;;5042196;28;20048;-71
2022/03/21 10:23:57;;;;;;;25.40;15.77;;;;;;;;;;5042123;28;20052;-71
2022/03/21 10:26:27;;;;;;;36.17;18.17;;;;;;;;;;5033323;28;20711;-71
2022/03/21 10:28:54;;;;;;;32.95;18.92;;;;;;;;;;5044047;28;20053;-71
2022/03/21 10:31:38;;;;;;;29.77;17.27;;;;;;;;;;5035568;28;20045;-70
2022/03/21 10:34:17;;;;;;;29.55;17.63;;;;;;;;;;5025975;28;20090;-71
2022/03/21 10:36:56;;;;;;;26.60;17.48;;;;;;;;;;5024660;28;20041;-71
2022/03/21 10:39:23;;;;;;;28.50;17.52;;;;;;;;;;5042653;28;20064;-70
2022/03/21 10:41:54;;;;;;;36.88;19.67;;;;;;;;;;5039179;28;20056;-70
2022/03/21 10:44:20;;;;;;;30.77;20.10;;;;;;;;;;5045361;28;20052;-69
2022/03/21 10:46:50;;;;;;;35.03;19.77;;;;;;;;;;5040071;28;20743;-70
2022/03/21 10:49:25;;;;;;;31.98;18.50;;;;;;;;;;5033787;28;20048;-69
2022/03/21 10:51:54;;;;;;;29.63;17.65;;;;;;;;;;5041318;28;20045;-69
2022/03/21 10:54:20;;;;;;;;;;;;;;;;;;5031833;28;20049;-70
2022/03/21 10:56:46;;;;;;;29.00;17.10;;;;;;;;;;5046851;28;19932;-69
2022/03/21 10:59:16;;;;;;;30.75;17.33;;;;;;;;;;5033584;28;20048;-70
2022/03/21 11:01:42;;;;;;;30.42;18.70;;;;;;;;;;5034467;28;20052;-69
2022/03/21 11:04:08;;;;;;;30.80;17.80;;;;;;;;;;5035096;28;20056;-70
2022/03/21 11:06:35;;;;;;;30.45;19.02;;;;;;;;;;5050613;28;20057;-69
2022/03/21 11:09:02;;;;;;;26.85;17.98;;;;;;;;;;5051465;28;20045;-69
2022/03/21 11:11:29;;;;;;;40.72;19.08;;;;;;;;;;5037408;28;20056;-70
2022/03/21 11:13:55;;;;;;;31.40;19.55;;;;;;;;;;5037010;28;20339;-70
2022/03/21 11:16:22;;;;;;;29.15;19.33;;;;;;;;;;5042413;28;20053;-70
2022/03/21 11:18:51;;;;;;;28.13;17.65;;;;;;;;;;5051384;28;20041;-69
2022/03/21 11:21:20;;;;;;;29.20;18.33;;;;;;;;;;5056574;28;20045;-69
2022/03/21 11:23:47;;;;;;;26.70;18.13;;;;;;;;;;5037740;28;20124;-69
2022/03/21 11:26:14;;;;;;;30.88;19.70;;;;;;;;;;5046157;28;20041;-70
2022/03/21 11:29:00;;;;;;;26.38;17.27;;;;;;;;;;5030693;28;20055;-69
2022/03/21 11:31:38;;;;;;;28.35;19.60;;;;;;;;;;5027997;28;20056;-69
2022/03/21 11:34:14;;;;;;;29.35;18.75;;;;;;;;;;5029412;28;20048;-69
2022/03/21 11:36:51;;;;;;;37.70;19.92;;;;;;;;;;5027307;28;20056;-69
2022/03/21 11:39:17;;;;;;;29.08;19.02;;;;;;;;;;5026762;28;20053;-71
2022/03/21 11:41:55;;;;;;;32.25;19.60;;;;;;;;;;5032431;28;20055;-70
2022/03/21 11:44:22;;;;;;;34.53;19.30;;;;;;;;;;5023047;28;20084;-71
2022/03/21 11:46:48;;;;;;;24.40;18.35;;;;;;;;;;5049781;28;20048;-70
2022/03/21 11:49:17;;;;;;;29.98;20.10;;;;;;;;;;5035196;28;20056;-70
2022/03/21 11:51:44;;;;;;;29.40;19.73;;;;;;;;;;5042671;28;20045;-69
2022/03/21 11:54:26;;;;;;;32.53;19.38;;;;;;;;;;5043368;28;20048;-70
2022/03/21 11:56:53;;;;;;;28.83;19.08;;;;;;;;;;5026699;28;20051;-71
2022/03/21 11:59:39;;;;;;;30.83;20.30;;;;;;;;;;5033621;28;20049;-71
2022/03/21 12:02:09;;;;;;;26.95;17.60;;;;;;;;;;5029199;28;20060;-71
2022/03/21 12:04:37;;;;;;;27.92;19.77;;;;;;;;;;5041273;28;20049;-71
2022/03/21 12:07:12;;;;;;;31.95;20.42;;;;;;;;;;5034260;28;20504;-71
2022/03/21 12:09:42;;;;;;;28.17;18.20;;;;;;;;;;5038077;28;20048;-71
2022/03/21 12:12:10;;;;;;;28.42;18.17;;;;;;;;;;5033332;28;20073;-71
2022/03/21 12:14:40;;;;;;;30.48;20.58;;;;;;;;;;5032637;28;20049;-71
2022/03/21 12:17:10;;;;;;;29.55;19.77;;;;;;;;;;5048492;28;20045;-71
2022/03/21 12:19:48;;;;;;;26.75;19.45;;;;;;;;;;5037039;28;20049;-71
2022/03/21 12:22:27;;;;;;;33.33;19.65;;;;;;;;;;5056202;28;20409;-72
2022/03/21 12:24:54;;;;;;;28.40;18.88;;;;;;;;;;5037515;28;20053;-71
2022/03/21 12:27:29;;;;;;;31.50;20.35;;;;;;;;;;5039347;28;20125;-71
2022/03/21 12:30:16;;;;;;;32.00;19.88;;;;;;;;;;5031901;28;20057;-71
2022/03/21 12:32:48;;;;;;;29.27;20.60;;;;;;;;;;5039916;28;20045;-71
2022/03/21 12:35:34;;;;;;;27.90;19.45;;;;;;;;;;5048435;28;20041;-71
2022/03/21 12:38:05;;;;;;;33.30;20.77;;;;;;;;;;5043429;28;20052;-71
2022/03/21 12:40:32;;;;;;;36.95;21.13;;;;;;;;;;5033016;28;20049;-71
2022/03/21 12:42:59;;;;;;;24.77;17.77;;;;;;;;;;5034732;28;20412;-71
2022/03/21 12:45:26;;;;;;;26.90;20.73;;;;;;;;;;5046205;28;20052;-71
2022/03/21 12:47:59;;;;;;;27.08;19.25;;;;;;;;;;5040412;28;20383;-71
2022/03/21 12:50:26;;;;;;;28.63;20.65;;;;;;;;;;5048244;28;20048;-71
2022/03/21 12:52:57;;;;;;;30.53;20.60;;;;;;;;;;5039763;28;20045;-71
2022/03/21 12:55:24;;;;;;;28.88;20.02;;;;;;;;;;5045172;28;20084;-71
2022/03/21 12:57:54;;;;;;;28.42;20.70;;;;;;;;;;5044886;28;20037;-71
2022/03/21 13:00:21;;;;;;;28.70;21.75;;;;;;;;;;5039668;28;20060;-71
2022/03/21 13:02:48;;;;;;;29.73;21.00;;;;;;;;;;5020639;28;20422;-72
2022/03/21 13:10:44;;;;;;;30.38;19.95;;;;;;;;;;5032328;28;20506;-71
2022/03/21 13:13:11;;;;;;;29.75;18.98;;;;;;;;;;5050702;28;20049;-71
2022/03/21 13:15:37;;;;;;;32.65;22.52;;;;;;;;;;5047640;28;20055;-71
2022/03/21 13:18:04;;;;;;;27.38;21.48;;;;;;;;;;5050378;28;20036;-72
2022/03/21 13:20:36;;;;;;;32.22;21.20;;;;;;;;;;5044981;28;20053;-71
2022/03/21 13:23:04;;;;;;;32.30;20.58;;;;;;;;;;5036469;28;20100;-71
2022/03/21 13:25:35;;;;;;;28.23;20.60;;;;;;;;;;5052103;28;20045;-71
2022/03/21 13:28:08;;;;;;;27.30;20.33;;;;;;;;;;5034579;28;20052;-71
2022/03/21 13:30:34;;;;;;;24.73;17.23;;;;;;;;;;5050458;28;20053;-71
2022/03/21 13:33:01;;;;;;;25.17;19.00;;;;;;;;;;5046584;28;20037;-71
2022/03/21 13:35:27;;;;;;;30.25;21.40;;;;;;;;;;5045729;28;20049;-71
2022/03/21 13:38:04;;;;;;;33.75;21.23;;;;;;;;;;5039217;28;20045;-71
2022/03/21 13:40:42;;;;;;;28.92;21.00;;;;;;;;;;5043695;28;20079;-71
2022/03/21 13:43:19;;;;;;;29.42;22.52;;;;;;;;;;5041275;28;20038;-71
2022/03/21 13:45:46;;;;;;;31.15;21.58;;;;;;;;;;5033148;28;20044;-71
2022/03/21 13:48:30;;;;;;;25.95;20.52;;;;;;;;;;5041690;28;20045;-71
2022/03/21 13:51:00;;;;;;;29.98;20.67;;;;;;;;;;5029920;28;20045;-71
2022/03/21 13:53:27;;;;;;;27.30;21.65;;;;;;;;;;5047659;28;20061;-71
2022/03/21 13:55:53;;;;;;;31.80;20.88;;;;;;;;;;5052727;28;20560;-71
2022/03/21 13:58:23;;;;;;;29.10;21.45;;;;;;;;;;5046503;28;20041;-71
2022/03/21 14:00:50;;;;;;;29.35;21.58;;;;;;;;;;5043775;28;20049;-72
2022/03/21 14:03:36;;;;;;;29.80;20.50;;;;;;;;;;5028566;28;20049;-72
2022/03/21 14:06:03;;;;;;;31.77;21.00;;;;;;;;;;5033125;28;20045;-72
2022/03/21 14:08:30;;;;;;;27.13;20.17;;;;;;;;;;5042803;28;20059;-72
2022/03/21 14:11:08;;;;;;;29.60;21.55;;;;;;;;;;5050677;28;20045;-72
2022/03/21 14:13:34;;;;;;;31.67;20.90;;;;;;;;;;5038259;28;20132;-72
2022/03/21 14:16:01;;;;;;;35.13;22.83;;;;;;;;;;5034032;28;20048;-72
2022/03/21 14:18:29;;;;;;;32.92;21.88;;;;;;;;;;5035590;28;20505;-72
2022/03/21 14:20:55;;;;;;;31.48;19.77;;;;;;;;;;5044101;28;20049;-72
2022/03/21 14:23:22;;;;;;;32.25;20.52;;;;;;;;;;5025233;28;20136;-72
2022/03/21 14:28:34;;;;;;;30.33;20.52;;;;;;;;;;5039247;28;20053;-72
2022/03/21 14:31:01;;;;;;;31.45;20.80;;;;;;;;;;5025673;28;20067;-72
2022/03/21 14:33:28;;;;;;;30.92;20.95;;;;;;;;;;5042739;28;20048;-72
2022/03/21 14:35:54;;;;;;;35.45;21.42;;;;;;;;;;5033113;28;20057;-72
2022/03/21 14:38:20;;;;;;;31.17;22.60;;;;;;;;;;5041799;28;20077;-72
2022/03/21 14:40:47;;;;;;;31.05;19.98;;;;;;;;;;5043625;28;20050;-72
2022/03/21 14:43:13;;;;;;;30.20;19.92;;;;;;;;;;5026986;28;20414;-72
2022/03/21 14:45:40;;;;;;;29.05;19.45;;;;;;;;;;5036001;28;20045;-72
2022/03/21 14:48:07;;;;;;;30.15;19.00;;;;;;;;;;5040661;28;20072;-72
2022/03/21 14:50:33;;;;;;;26.15;18.35;;;;;;;;;;5037675;28;20056;-73
2022/03/21 14:53:03;;;;;;;29.52;18.88;;;;;;;;;;5041244;28;20052;-72
2022/03/21 14:55:30;;;;;;;25.83;18.30;;;;;;;;;;5033642;28;20158;-72
2022/03/21 14:57:56;;;;;;;26.83;18.63;;;;;;;;;;5033474;28;20877;-72